Time;durP1;ratioP1;P1;durP2;ratioP2;P2;SDS_P1;SDS_P2;PMS_P1;PMS_P2;Temp;Humidity;BMP_temperature;BMP_pressure;BME280_temperature;BME280_humidity;BME280_pressure;Samples;Min_cycle;Max_cycle;Signal;HPM_P1;HPM_P2
2021/05/20 00:01:30;;;;;;;2.40;1.35;;;13.10;90.70;;;;;;5031911;28;20021;-84
2021/05/20 00:03:56;;;;;;;1.25;1.15;;;13.00;90.60;;;;;;5027417;28;20024;-84
2021/05/20 00:06:21;;;;;;;1.08;0.98;;;13.00;90.60;;;;;;5030587;28;20471;-84
2021/05/20 00:08:47;;;;;;;1.73;1.40;;;13.10;90.60;;;;;;5030110;28;20225;-84
2021/05/20 00:11:13;;;;;;;1.60;1.50;;;13.10;90.60;;;;;;5021517;28;20034;-84
2021/05/20 00:13:38;;;;;;;1.80;1.58;;;13.10;90.60;;;;;;5031757;28;20430;-84
2021/05/20 00:16:04;;;;;;;2.05;1.60;;;13.10;90.50;;;;;;5028500;28;20025;-84
2021/05/20 00:18:30;;;;;;;2.88;2.10;;;13.20;90.50;;;;;;5030198;28;20041;-84
2021/05/20 00:20:56;;;;;;;4.57;2.70;;;13.20;90.40;;;;;;5032515;28;20471;-84
2021/05/20 00:23:21;;;;;;;5.32;2.97;;;13.20;90.40;;;;;;5035856;28;20418;-84
2021/05/20 00:25:47;;;;;;;5.05;2.75;;;13.20;90.20;;;;;;5034915;28;20029;-84
2021/05/20 00:28:13;;;;;;;3.65;2.53;;;13.20;90.30;;;;;;5036949;28;20028;-83
2021/05/20 00:30:38;;;;;;;3.72;2.60;;;13.20;90.20;;;;;;5035517;28;20462;-83
2021/05/20 00:33:04;;;;;;;3.58;2.00;;;13.30;90.20;;;;;;5038219;28;20414;-83
2021/05/20 00:35:30;;;;;;;3.67;2.42;;;13.20;90.10;;;;;;5034537;28;20025;-83
2021/05/20 00:37:55;;;;;;;3.30;2.67;;;13.20;90.10;;;;;;5035509;28;20068;-84
2021/05/20 00:40:21;;;;;;;4.82;2.53;;;13.20;90.10;;;;;;5035316;28;20496;-83
2021/05/20 00:42:47;;;;;;;3.55;2.60;;;13.20;90.10;;;;;;5047424;28;20048;-83
2021/05/20 00:45:14;;;;;;;3.83;3.28;;;13.30;90.00;;;;;;5040801;28;20018;-83
2021/05/20 00:47:40;;;;;;;4.95;3.03;;;13.30;90.00;;;;;;5037866;28;20044;-83
2021/05/20 00:50:08;;;;;;;4.38;2.80;;;13.30;89.90;;;;;;5034684;28;20025;-83
2021/05/20 00:52:35;;;;;;;4.60;3.13;;;13.30;90.00;;;;;;5026728;28;20056;-84
2021/05/20 00:55:03;;;;;;;4.38;3.25;;;13.30;89.80;;;;;;5027537;28;20025;-84
2021/05/20 00:57:29;;;;;;;4.45;2.83;;;13.20;89.90;;;;;;5033131;28;20029;-84
2021/05/20 01:00:06;;;;;;;4.68;2.80;;;13.20;89.70;;;;;;5038275;28;20033;-83
2021/05/20 01:02:32;;;;;;;5.10;3.25;;;13.30;89.50;;;;;;5033701;28;20082;-83
2021/05/20 01:04:58;;;;;;;6.10;3.35;;;13.30;89.40;;;;;;5032770;28;20025;-84
2021/05/20 01:07:24;;;;;;;5.10;3.10;;;13.20;89.40;;;;;;5026730;28;20029;-83
2021/05/20 01:09:50;;;;;;;4.75;3.42;;;13.20;89.40;;;;;;5040059;28;20025;-83
2021/05/20 01:12:16;;;;;;;4.88;3.25;;;13.20;89.30;;;;;;5038489;28;20022;-83
2021/05/20 01:14:44;;;;;;;5.28;3.20;;;13.20;89.40;;;;;;5028756;28;20147;-84
2021/05/20 01:17:13;;;;;;;3.40;2.50;;;13.30;89.10;;;;;;5034167;28;20026;-83
2021/05/20 01:19:41;;;;;;;4.68;3.05;;;13.20;89.00;;;;;;5035054;28;20029;-83
2021/05/20 01:22:07;;;;;;;5.32;2.67;;;13.20;89.10;;;;;;5035364;28;20048;-83
2021/05/20 01:24:33;;;;;;;2.80;2.30;;;13.20;89.10;;;;;;5032951;28;20398;-82
2021/05/20 01:27:02;;;;;;;2.88;2.30;;;13.20;89.10;;;;;;5036322;28;20164;-83
2021/05/20 01:29:28;;;;;;;2.53;2.17;;;13.10;89.10;;;;;;5035899;28;20366;-83
2021/05/20 01:31:57;;;;;;;2.90;2.38;;;13.10;89.20;;;;;;5035975;28;20104;-83
2021/05/20 01:34:23;;;;;;;3.05;2.42;;;13.00;89.10;;;;;;5036000;28;20029;-82
2021/05/20 01:36:48;;;;;;;4.28;2.53;;;13.10;89.20;;;;;;5032453;28;20044;-83
2021/05/20 01:39:14;;;;;;;5.53;2.75;;;13.00;89.30;;;;;;5043157;28;20133;-83
2021/05/20 01:41:40;;;;;;;4.07;2.35;;;13.00;89.50;;;;;;5042142;28;20025;-82
2021/05/20 01:44:05;;;;;;;4.55;2.75;;;12.90;89.50;;;;;;5031998;28;20022;-82
2021/05/20 01:46:31;;;;;;;5.22;3.17;;;12.90;89.80;;;;;;5026711;28;20031;-82
2021/05/20 01:48:57;;;;;;;5.00;2.85;;;12.90;89.80;;;;;;5039429;28;20022;-82
2021/05/20 01:51:23;;;;;;;4.18;2.67;;;12.90;89.80;;;;;;5035029;28;20741;-82
2021/05/20 01:53:56;;;;;;;3.97;2.50;;;12.80;89.90;;;;;;5032155;28;20021;-83
2021/05/20 01:56:27;;;;;;;3.03;2.40;;;12.80;90.00;;;;;;5033861;28;20037;-82
2021/05/20 01:58:54;;;;;;;3.85;2.70;;;12.70;89.90;;;;;;5042984;28;20423;-82
2021/05/20 02:01:20;;;;;;;4.03;2.50;;;12.80;90.00;;;;;;5037491;28;20449;-82
2021/05/20 02:03:45;;;;;;;4.93;3.00;;;12.80;89.90;;;;;;5031895;28;20105;-82
2021/05/20 02:06:11;;;;;;;4.50;2.70;;;12.80;90.00;;;;;;5034969;28;20116;-82
2021/05/20 02:08:38;;;;;;;4.97;3.00;;;12.80;90.00;;;;;;5033533;28;20026;-83
2021/05/20 02:11:06;;;;;;;4.63;3.00;;;12.80;89.80;;;;;;5036157;28;20029;-82
2021/05/20 02:13:32;;;;;;;7.00;4.05;;;12.70;89.80;;;;;;5034167;28;20033;-82
2021/05/20 02:15:58;;;;;;;4.38;3.00;;;12.80;89.90;;;;;;5029790;28;20032;-82
2021/05/20 02:18:24;;;;;;;4.70;3.17;;;12.70;90.00;;;;;;5029752;28;20013;-83
2021/05/20 02:20:50;;;;;;;4.55;3.20;;;12.70;90.00;;;;;;5031682;28;20534;-83
2021/05/20 02:23:17;;;;;;;4.30;3.00;;;12.80;90.00;;;;;;5034100;28;20100;-83
2021/05/20 02:25:43;;;;;;;4.30;2.92;;;12.70;90.00;;;;;;5045940;28;20024;-82
2021/05/20 02:28:09;;;;;;;6.82;3.22;;;12.70;90.00;;;;;;5035822;28;20542;-82
2021/05/20 02:30:36;;;;;;;4.32;3.05;;;12.70;90.20;;;;;;5024864;28;20032;-82
2021/05/20 02:33:02;;;;;;;4.47;2.70;;;12.70;90.10;;;;;;5043062;28;20115;-82
2021/05/20 02:35:27;;;;;;;3.65;2.83;;;12.70;90.10;;;;;;5035773;28;20508;-82
2021/05/20 02:37:54;;;;;;;5.78;3.00;;;12.70;90.10;;;;;;5032138;28;20037;-82
2021/05/20 02:40:20;;;;;;;5.25;2.97;;;12.80;90.20;;;;;;5035128;28;20415;-82
2021/05/20 02:42:46;;;;;;;6.45;3.50;;;12.70;90.20;;;;;;5032418;28;20029;-81
2021/05/20 02:45:19;;;;;;;3.78;3.05;;;12.70;90.20;;;;;;5035601;28;20407;-81
2021/05/20 02:47:45;;;;;;;5.35;3.50;;;12.70;90.20;;;;;;5032105;28;20041;-82
2021/05/20 02:50:12;;;;;;;3.65;2.80;;;12.70;90.20;;;;;;5036063;28;20025;-82
2021/05/20 02:52:38;;;;;;;5.35;3.10;;;12.70;90.30;;;;;;5030271;28;20556;-82
2021/05/20 02:55:06;;;;;;;5.03;3.05;;;12.70;90.20;;;;;;5031599;28;20100;-82
2021/05/20 02:57:33;;;;;;;3.92;2.67;;;12.80;90.00;;;;;;5032654;28;20035;-82
2021/05/20 02:59:59;;;;;;;5.75;2.83;;;12.70;90.00;;;;;;5034758;28;20080;-82
2021/05/20 03:02:25;;;;;;;4.35;2.47;;;12.80;90.00;;;;;;5037674;28;20627;-82
2021/05/20 03:04:51;;;;;;;4.40;2.60;;;12.80;89.90;;;;;;5032810;28;20018;-83
2021/05/20 03:07:18;;;;;;;4.10;3.22;;;12.80;89.80;;;;;;5036012;28;20525;-82
2021/05/20 03:09:43;;;;;;;4.47;3.03;;;12.80;89.70;;;;;;5038690;28;20021;-83
2021/05/20 03:12:10;;;;;;;3.22;2.50;;;12.80;89.40;;;;;;5037883;28;20524;-83
2021/05/20 03:14:36;;;;;;;4.07;2.95;;;12.90;89.20;;;;;;5035694;28;20025;-83
2021/05/20 03:17:04;;;;;;;5.53;3.30;;;12.80;89.20;;;;;;5033294;28;20025;-82
2021/05/20 03:19:30;;;;;;;5.65;3.55;;;12.80;89.30;;;;;;5049142;28;20021;-83
2021/05/20 03:21:55;;;;;;;5.95;3.47;;;12.70;89.60;;;;;;5022301;28;20429;-83
2021/05/20 03:24:21;;;;;;;5.78;3.70;;;12.70;89.90;;;;;;5029592;28;20026;-82
2021/05/20 03:26:47;;;;;;;4.75;3.20;;;12.70;90.10;;;;;;5030554;28;20083;-83
2021/05/20 03:29:12;;;;;;;5.25;3.28;;;12.60;90.10;;;;;;5034301;28;20067;-81
2021/05/20 03:31:39;;;;;;;4.57;3.78;;;12.70;90.30;;;;;;5023749;28;20075;-81
2021/05/20 03:34:05;;;;;;;4.45;3.53;;;12.70;90.20;;;;;;5024770;28;20029;-82
2021/05/20 03:36:31;;;;;;;4.25;3.15;;;12.70;90.00;;;;;;5032113;28;20103;-82
2021/05/20 03:38:57;;;;;;;4.18;2.65;;;12.80;90.00;;;;;;5022155;28;20545;-82
2021/05/20 03:41:22;;;;;;;4.60;3.30;;;12.80;90.00;;;;;;5035871;28;20079;-82
2021/05/20 03:43:48;;;;;;;5.97;3.10;;;12.80;89.50;;;;;;5028931;28;20050;-82
2021/05/20 03:46:14;;;;;;;3.58;2.80;;;12.90;88.90;;;;;;5031143;28;20029;-83
2021/05/20 03:48:39;;;;;;;4.28;2.90;;;12.90;89.00;;;;;;5037455;28;20029;-82
2021/05/20 03:51:05;;;;;;;2.83;2.42;;;12.90;88.80;;;;;;5034862;28;20029;-83
2021/05/20 03:53:32;;;;;;;9.25;3.55;;;13.00;88.30;;;;;;5030280;28;20033;-82
2021/05/20 03:56:01;;;;;;;6.60;3.20;;;13.00;88.10;;;;;;5029786;28;20896;-82
2021/05/20 03:58:28;;;;;;;4.13;3.00;;;13.00;88.30;;;;;;5030728;28;20022;-82
2021/05/20 04:00:54;;;;;;;3.88;2.95;;;13.10;88.10;;;;;;5028369;28;20395;-83
2021/05/20 04:03:27;;;;;;;3.88;2.90;;;13.10;87.60;;;;;;5028793;28;20021;-83
2021/05/20 04:05:54;;;;;;;5.72;2.67;;;13.10;87.50;;;;;;5035693;28;20021;-82
2021/05/20 04:08:20;;;;;;;3.97;2.90;;;13.10;87.50;;;;;;5031295;28;20033;-82
2021/05/20 04:10:47;;;;;;;2.80;2.60;;;13.20;86.70;;;;;;5031908;28;20439;-82
2021/05/20 04:13:13;;;;;;;4.32;2.80;;;13.20;86.60;;;;;;5035644;28;20014;-82
2021/05/20 04:15:39;;;;;;;4.45;2.88;;;13.20;86.40;;;;;;5032197;28;20390;-83
2021/05/20 04:18:05;;;;;;;3.85;2.60;;;13.20;86.30;;;;;;5019254;28;20026;-81
2021/05/20 04:20:31;;;;;;;3.92;2.58;;;13.30;85.30;;;;;;5028224;28;20390;-81
2021/05/20 04:22:56;;;;;;;3.63;2.67;;;13.40;84.60;;;;;;5028946;28;20116;-80
2021/05/20 04:25:22;;;;;;;4.15;2.70;;;13.40;84.80;;;;;;5033527;28;20021;-81
2021/05/20 04:27:48;;;;;;;2.63;2.40;;;13.40;85.00;;;;;;5030426;28;20084;-82
2021/05/20 04:30:14;;;;;;;4.78;2.63;;;13.40;84.60;;;;;;5027774;28;20153;-81
2021/05/20 04:32:40;;;;;;;4.45;3.50;;;13.40;84.60;;;;;;5019837;28;20034;-81
2021/05/20 04:35:06;;;;;;;6.68;2.88;;;13.40;84.20;;;;;;5016786;28;20053;-83
2021/05/20 04:37:32;;;;;;;2.95;2.50;;;13.40;83.50;;;;;;5036012;28;20347;-83
2021/05/20 04:39:57;;;;;;;3.33;2.78;;;13.40;83.40;;;;;;5032461;28;20032;-82
2021/05/20 04:42:23;;;;;;;4.72;2.85;;;13.30;83.80;;;;;;5031515;28;20063;-82
2021/05/20 04:44:49;;;;;;;4.30;2.83;;;13.40;83.70;;;;;;5031228;28;20025;-83
2021/05/20 04:47:14;;;;;;;3.60;2.97;;;13.40;83.80;;;;;;5035423;28;20036;-82
2021/05/20 04:49:40;;;;;;;3.90;2.72;;;13.50;83.70;;;;;;5041169;28;20056;-83
2021/05/20 04:52:06;;;;;;;3.72;2.42;;;13.50;83.80;;;;;;5032734;28;20029;-82
2021/05/20 04:54:31;;;;;;;5.47;2.60;;;13.60;83.90;;;;;;5025426;28;20120;-82
2021/05/20 04:56:57;;;;;;;4.97;2.50;;;13.70;82.70;;;;;;5031303;28;20033;-82
2021/05/20 04:59:23;;;;;;;3.72;2.70;;;13.80;82.60;;;;;;5042032;28;20024;-82
2021/05/20 05:01:48;;;;;;;3.40;2.65;;;13.90;81.30;;;;;;5020635;28;20028;-84
2021/05/20 05:04:14;;;;;;;4.45;2.40;;;14.00;80.30;;;;;;5027140;28;20075;-83
2021/05/20 05:06:40;;;;;;;3.42;2.40;;;14.00;79.20;;;;;;5028945;28;20495;-82
2021/05/20 05:09:06;;;;;;;3.38;2.47;;;13.90;79.30;;;;;;5029085;28;20360;-82
2021/05/20 05:11:31;;;;;;;4.47;2.70;;;13.90;79.30;;;;;;5036399;28;20025;-85
2021/05/20 05:13:57;;;;;;;4.65;3.20;;;13.90;79.40;;;;;;5024639;28;20061;-83
2021/05/20 05:16:22;;;;;;;5.15;3.60;;;13.80;80.10;;;;;;5028800;28;20030;-83
2021/05/20 05:18:48;;;;;;;3.90;3.08;;;13.90;80.00;;;;;;5036792;28;20040;-83
2021/05/20 05:21:14;;;;;;;3.72;2.70;;;13.90;79.40;;;;;;5031518;28;20117;-82
2021/05/20 05:23:40;;;;;;;3.78;2.80;;;13.90;79.20;;;;;;5028661;28;20033;-81
2021/05/20 05:26:06;;;;;;;5.15;2.85;;;13.90;79.70;;;;;;5036375;28;20021;-82
2021/05/20 05:28:32;;;;;;;4.55;3.00;;;13.90;79.20;;;;;;5030615;28;20120;-82
2021/05/20 05:30:58;;;;;;;5.60;2.67;;;13.90;78.80;;;;;;5028882;28;20036;-83
2021/05/20 05:33:26;;;;;;;3.67;2.70;;;13.80;78.70;;;;;;5024268;28;20033;-83
2021/05/20 05:35:51;;;;;;;3.47;2.50;;;13.80;79.20;;;;;;5026784;28;20045;-82
2021/05/20 05:38:17;;;;;;;4.10;2.80;;;13.80;79.00;;;;;;5027238;28;20033;-85
2021/05/20 05:40:43;;;;;;;7.10;3.28;;;13.80;79.20;;;;;;5025828;28;21554;-83
2021/05/20 05:43:08;;;;;;;5.18;3.40;;;13.80;79.00;;;;;;5028837;28;20032;-84
2021/05/20 05:45:34;;;;;;;4.82;3.35;;;13.80;78.60;;;;;;5025824;28;20041;-83
2021/05/20 05:48:00;;;;;;;5.28;3.03;;;13.90;77.80;;;;;;5025481;28;20029;-83
2021/05/20 05:50:27;;;;;;;4.20;3.00;;;13.90;78.20;;;;;;5028156;28;20371;-83
2021/05/20 05:52:53;;;;;;;3.92;2.53;;;13.90;78.10;;;;;;5022011;28;20033;-83
2021/05/20 05:55:18;;;;;;;3.97;2.60;;;14.00;78.10;;;;;;5028582;28;20062;-83
2021/05/20 05:57:44;;;;;;;6.38;2.70;;;14.00;78.10;;;;;;5026658;28;20044;-84
2021/05/20 06:00:11;;;;;;;6.53;3.10;;;14.10;78.80;;;;;;5019054;28;20026;-83
2021/05/20 06:02:36;;;;;;;5.57;3.10;;;14.30;78.10;;;;;;5036819;28;20057;-84
2021/05/20 06:05:04;;;;;;;4.75;3.05;;;14.40;76.90;;;;;;5027695;28;20049;-84
2021/05/20 06:07:34;;;;;;;5.40;3.00;;;14.60;76.90;;;;;;5023149;28;20026;-84
2021/05/20 06:10:04;;;;;;;3.30;2.72;;;14.70;75.90;;;;;;5025968;28;20033;-85
2021/05/20 06:12:30;;;;;;;3.60;2.60;;;14.90;75.20;;;;;;5027183;28;20034;-86
2021/05/20 06:14:56;;;;;;;4.22;2.40;;;15.00;73.80;;;;;;5027598;28;20040;-85
2021/05/20 06:17:21;;;;;;;5.53;2.55;;;15.10;74.50;;;;;;5023589;28;20104;-86
2021/05/20 06:19:47;;;;;;;5.05;2.58;;;15.20;73.20;;;;;;5024251;28;20446;-85
2021/05/20 06:22:13;;;;;;;5.68;2.80;;;15.20;72.50;;;;;;5029497;28;20037;-85
2021/05/20 06:24:39;;;;;;;3.53;2.60;;;15.30;72.10;;;;;;5021340;28;20021;-85
2021/05/20 06:27:04;;;;;;;2.65;2.13;;;15.40;72.00;;;;;;5022426;28;20057;-84
2021/05/20 06:29:30;;;;;;;3.83;2.80;;;15.40;71.40;;;;;;5019968;28;20132;-83
2021/05/20 06:31:56;;;;;;;3.58;2.38;;;15.50;71.70;;;;;;5016938;28;22923;-83
2021/05/20 06:34:28;;;;;;;2.88;2.40;;;15.70;71.00;;;;;;5005935;28;21537;-85
2021/05/20 06:36:56;;;;;;;5.43;2.27;;;15.80;70.90;;;;;;5017464;28;20053;-83
2021/05/20 06:39:25;;;;;;;2.88;2.10;;;15.90;69.90;;;;;;5013660;28;20794;-83
2021/05/20 06:41:50;;;;;;;2.60;2.20;;;16.10;70.20;;;;;;5016350;28;20164;-83
2021/05/20 06:44:16;;;;;;;6.28;2.40;;;16.20;69.10;;;;;;5016620;28;20128;-86
2021/05/20 06:47:00;;;;;;;2.85;2.38;;;16.30;68.60;;;;;;5005571;28;20486;-85
2021/05/20 06:49:39;;;;;;;4.10;2.50;;;16.50;68.50;;;;;;5015938;28;20057;-86
2021/05/20 06:52:20;;;;;;;3.92;2.40;;;16.50;66.70;;;;;;5016421;28;20037;-87
2021/05/20 06:55:03;;;;;;;6.53;2.25;;;16.50;64.90;;;;;;5025427;28;20033;-88
2021/05/20 07:01:46;;;;;;;4.32;2.10;;;16.50;66.40;;;;;;5023314;28;20925;-90
2021/05/20 07:07:28;;;;;;;3.25;2.30;;;16.60;64.40;;;;;;4999613;28;20034;-85
2021/05/20 07:09:54;;;;;;;3.88;2.17;;;16.60;64.50;;;;;;5018509;28;20489;-85
2021/05/20 07:12:20;;;;;;;5.22;2.30;;;16.60;64.90;;;;;;5013208;28;20030;-85
2021/05/20 07:14:49;;;;;;;3.70;2.25;;;16.60;64.80;;;;;;5022618;28;20060;-85
2021/05/20 07:17:17;;;;;;;2.42;2.00;;;16.80;65.00;;;;;;5021458;28;20030;-83
2021/05/20 07:20:32;;;;;;;3.70;2.30;;;16.80;62.70;;;;;;5025375;28;20120;-89
2021/05/20 07:23:55;;;;;;;4.90;2.10;;;16.80;62.80;;;;;;5018709;28;20465;-87
2021/05/20 07:26:23;;;;;;;3.38;2.10;;;16.90;62.30;;;;;;5005850;28;20082;-84
2021/05/20 07:28:52;;;;;;;5.20;2.22;;;17.00;61.10;;;;;;5020336;28;20037;-86
2021/05/20 07:31:31;;;;;;;;;;;;;;;;;;;;;
2021/05/20 07:34:35;;;;;;;;;;;;;;;;;;;;;
2021/05/20 07:37:36;;;;;;;4.88;1.90;;;17.00;61.40;;;;;;5012469;28;20075;-84
2021/05/20 07:43:57;;;;;;;3.83;1.90;;;17.30;61.50;;;;;;5013610;28;20037;-86
2021/05/20 07:46:23;;;;;;;;;;;17.40;60.00;;;;;;5013032;28;20036;-88
2021/05/20 07:49:01;;;;;;;3.05;1.95;;;17.50;59.80;;;;;;5021413;28;19927;-88
2021/05/20 07:51:40;;;;;;;;;;;;;;;;;;;;;
2021/05/20 07:54:20;;;;;;;3.13;2.00;;;17.60;59.10;;;;;;5024144;28;20025;-90
2021/05/20 07:57:39;;;;;;;;;;;;;;;;;;;;;
2021/05/20 08:00:32;;;;;;;3.03;1.90;;;17.70;59.20;;;;;;5015104;28;20029;-88
2021/05/20 08:03:26;;;;;;;3.72;2.10;;;17.90;59.90;;;;;;5008394;28;20049;-88
2021/05/20 08:11:15;;;;;;;3.33;2.20;;;18.30;59.20;;;;;;5007553;28;20022;-87
2021/05/20 08:13:41;;;;;;;3.83;2.00;;;18.50;58.70;;;;;;5021386;28;20936;-88
2021/05/20 08:16:13;;;;;;;3.65;1.88;;;18.50;58.40;;;;;;5012012;28;20836;-90
2021/05/20 08:18:39;;;;;;;4.78;2.08;;;18.70;58.80;;;;;;5016926;28;20029;-87
2021/05/20 08:21:06;;;;;;;3.50;2.30;;;18.80;58.10;;;;;;5014548;28;20040;-86
2021/05/20 08:23:33;;;;;;;4.05;2.40;;;19.00;57.70;;;;;;5016856;28;20018;-88
2021/05/20 08:26:01;;;;;;;2.20;1.90;;;19.10;57.00;;;;;;5018260;28;20439;-86
2021/05/20 08:28:32;;;;;;;2.35;1.90;;;19.10;56.30;;;;;;5016297;28;20625;-86
2021/05/20 08:30:58;;;;;;;2.60;1.80;;;19.20;55.70;;;;;;5010436;28;20056;-86
2021/05/20 08:33:26;;;;;;;2.63;1.77;;;19.30;56.20;;;;;;5005007;28;20041;-88
2021/05/20 08:35:57;;;;;;;2.55;1.83;;;19.20;57.00;;;;;;5015671;28;20045;-87
2021/05/20 08:38:33;;;;;;;3.83;2.20;;;19.30;56.10;;;;;;5030912;28;20033;-86
2021/05/20 08:40:59;;;;;;;2.10;1.80;;;19.40;55.10;;;;;;5010036;28;20041;-83
2021/05/20 08:43:30;;;;;;;7.05;2.03;;;19.40;55.70;;;;;;5005889;28;20026;-86
2021/05/20 08:46:04;;;;;;;3.25;1.90;;;19.50;54.40;;;;;;5016003;28;20073;-86
2021/05/20 08:48:34;;;;;;;1.92;1.70;;;19.40;54.50;;;;;;5024138;28;20157;-87
2021/05/20 08:51:29;;;;;;;2.78;1.90;;;19.30;54.40;;;;;;5017991;28;20025;-87
2021/05/20 08:53:54;;;;;;;2.55;1.98;;;19.50;53.30;;;;;;5025124;28;20065;-83
2021/05/20 09:00:52;;;;;;;3.88;2.08;;;19.60;52.60;;;;;;5015433;28;20032;-86
2021/05/20 09:03:26;;;;;;;2.83;2.13;;;19.80;51.40;;;;;;4941071;28;20027;-83
2021/05/20 09:06:08;;;;;;;2.78;1.98;;;20.10;52.80;;;;;;4977525;28;20156;-83
2021/05/20 09:09:12;;;;;;;;;;;;;;;;;;;;;
2021/05/20 09:12:37;;;;;;;2.30;1.90;;;20.20;51.30;;;;;;4977126;28;20777;-86
2021/05/20 09:15:32;;;;;;;2.40;1.85;;;20.10;50.90;;;;;;4912858;29;20225;-87
2021/05/20 09:18:09;;;;;;;2.97;1.80;;;20.10;51.50;;;;;;4918712;29;20130;-84
2021/05/20 09:20:40;;;;;;;4.25;2.35;;;20.20;52.70;;;;;;4930193;28;20044;-85
2021/05/20 09:23:17;;;;;;;2.80;2.20;;;20.30;52.50;;;;;;4925541;28;20039;-83
2021/05/20 09:25:45;;;;;;;2.17;1.98;;;20.40;51.90;;;;;;4920452;28;20043;-83
2021/05/20 09:28:13;;;;;;;3.35;1.92;;;20.30;52.30;;;;;;4934827;28;20066;-86
2021/05/20 09:30:44;;;;;;;2.15;1.95;;;20.40;52.50;;;;;;4939935;28;20047;-84
2021/05/20 09:33:17;;;;;;;3.30;2.30;;;20.50;52.20;;;;;;4936811;28;20057;-85
2021/05/20 09:35:51;;;;;;;3.20;2.05;;;20.60;51.10;;;;;;4931756;28;20047;-84
2021/05/20 09:38:24;;;;;;;5.20;1.92;;;20.70;50.10;;;;;;4925618;28;20430;-84
2021/05/20 09:40:56;;;;;;;2.50;2.00;;;20.60;49.60;;;;;;4942162;28;20035;-84
2021/05/20 09:43:30;;;;;;;2.53;1.90;;;20.60;50.20;;;;;;4937042;28;20022;-85
2021/05/20 09:45:56;;;;;;;2.30;2.00;;;20.60;50.50;;;;;;4971188;28;20041;-83
2021/05/20 09:48:26;;;;;;;2.10;1.90;;;20.70;50.70;;;;;;5008104;28;20960;-84
2021/05/20 09:50:58;;;;;;;2.85;2.00;;;20.80;50.10;;;;;;5017540;28;20127;-87
2021/05/20 09:53:25;;;;;;;2.38;2.17;;;20.70;50.00;;;;;;5025323;28;20049;-88
2021/05/20 09:55:56;;;;;;;3.22;2.45;;;20.60;50.90;;;;;;5016576;28;20033;-87
2021/05/20 09:59:31;;;;;;;;;;;;;;;;;;;;;
2021/05/20 10:02:34;;;;;;;5.85;2.40;;;20.60;51.30;;;;;;5009467;28;20037;-86
2021/05/20 10:05:48;;;;;;;2.33;2.05;;;20.70;50.30;;;;;;5007629;28;20053;-86
2021/05/20 10:08:19;;;;;;;5.70;2.50;;;20.80;49.80;;;;;;5014379;28;20379;-85
2021/05/20 10:10:57;;;;;;;4.97;2.30;;;21.00;50.90;;;;;;5015067;28;20025;-88
2021/05/20 10:13:29;;;;;;;3.72;2.30;;;21.20;50.50;;;;;;5017562;28;20537;-86
2021/05/20 10:15:58;;;;;;;14.43;2.85;;;21.30;49.00;;;;;;5019114;28;20034;-90
2021/05/20 10:18:26;;;;;;;8.35;3.13;;;21.20;48.90;;;;;;5021462;28;20022;-91
2021/05/20 10:20:58;;;;;;;3.45;2.35;;;21.20;48.80;;;;;;5018687;28;20558;-86
2021/05/20 10:23:25;;;;;;;2.20;1.98;;;21.10;49.10;;;;;;5022272;28;20067;-86
2021/05/20 10:26:13;;;;;;;3.90;2.35;;;21.10;48.70;;;;;;5020290;28;20080;-86
2021/05/20 10:28:42;;;;;;;2.70;2.17;;;21.20;48.90;;;;;;5020834;28;20025;-86
2021/05/20 10:31:11;;;;;;;3.15;2.20;;;21.30;49.10;;;;;;5024412;28;20041;-85
2021/05/20 10:33:40;;;;;;;3.20;2.20;;;21.40;48.60;;;;;;5020705;28;20112;-87
2021/05/20 10:36:06;;;;;;;2.67;1.92;;;21.40;48.60;;;;;;5022984;28;20033;-85
2021/05/20 10:38:32;;;;;;;3.13;2.30;;;21.40;49.30;;;;;;5015897;28;20045;-86
2021/05/20 10:41:27;;;;;;;2.28;2.00;;;21.50;47.90;;;;;;5017920;28;20037;-87
2021/05/20 10:44:01;;;;;;;2.28;2.03;;;21.50;48.40;;;;;;5022723;28;20033;-86
2021/05/20 10:46:27;;;;;;;2.25;2.10;;;21.60;48.00;;;;;;5021838;28;20156;-86
2021/05/20 10:48:54;;;;;;;1.80;1.70;;;21.90;47.50;;;;;;5021164;28;20045;-85
2021/05/20 10:51:41;;;;;;;1.80;1.70;;;22.00;47.30;;;;;;5020546;28;20489;-84
2021/05/20 10:54:09;;;;;;;3.25;1.80;;;22.20;46.90;;;;;;5024120;28;20025;-87
2021/05/20 10:56:38;;;;;;;3.80;2.40;;;22.00;46.50;;;;;;5020052;28;20080;-83
2021/05/20 10:59:34;;;;;;;4.03;2.10;;;22.00;46.70;;;;;;5011022;28;20104;-85
2021/05/20 11:02:03;;;;;;;3.10;2.20;;;22.00;46.60;;;;;;5014575;28;20095;-88
2021/05/20 11:04:39;;;;;;;4.60;2.10;;;22.10;47.10;;;;;;5012541;28;20439;-86
2021/05/20 11:07:30;;;;;;;3.58;1.98;;;22.00;46.50;;;;;;5019950;28;20128;-86
2021/05/20 11:10:09;;;;;;;2.95;1.90;;;21.90;46.70;;;;;;5021441;28;20156;-82
2021/05/20 11:12:54;;;;;;;3.55;2.30;;;22.00;46.20;;;;;;5011566;28;20041;-84
2021/05/20 11:15:35;;;;;;;;;;;;;;;;;;;;;
2021/05/20 11:18:33;;;;;;;3.65;2.38;;;22.00;47.40;;;;;;5008331;28;20388;-84
2021/05/20 11:21:02;;;;;;;2.28;2.00;;;22.20;46.70;;;;;;5016107;28;20029;-84
2021/05/20 11:23:38;;;;;;;2.80;2.22;;;22.30;46.80;;;;;;5008936;28;20083;-84
2021/05/20 11:26:35;;;;;;;2.92;1.90;;;22.40;46.80;;;;;;5014571;28;20104;-85
2021/05/20 11:29:09;;;;;;;2.10;1.90;;;22.60;45.90;;;;;;5010898;28;20044;-84
2021/05/20 11:31:42;;;;;;;3.05;2.00;;;22.50;46.30;;;;;;5012696;28;20037;-85
2021/05/20 11:34:23;;;;;;;2.67;2.15;;;22.50;46.70;;;;;;5011502;28;20687;-85
2021/05/20 11:36:53;;;;;;;2.97;2.40;;;22.50;47.00;;;;;;5013881;28;20135;-82
2021/05/20 11:39:28;;;;;;;5.50;2.30;;;22.40;46.10;;;;;;5028546;28;20053;-85
2021/05/20 11:41:57;;;;;;;3.22;2.60;;;22.30;46.20;;;;;;5032599;28;20037;-84
2021/05/20 11:44:28;;;;;;;5.35;2.50;;;22.20;46.30;;;;;;5020097;28;20051;-85
2021/05/20 11:47:11;;;;;;;3.80;2.08;;;22.20;45.90;;;;;;5017099;28;20029;-84
2021/05/20 11:49:38;;;;;;;2.10;1.90;;;22.10;45.40;;;;;;4998473;28;20043;-83
2021/05/20 11:52:08;;;;;;;3.33;2.10;;;22.00;46.30;;;;;;5015396;28;20026;-83
2021/05/20 11:54:37;;;;;;;3.53;2.10;;;22.10;46.20;;;;;;5014829;28;20036;-84
2021/05/20 11:57:06;;;;;;;3.47;1.98;;;22.10;45.60;;;;;;5017859;28;20034;-84
2021/05/20 11:59:38;;;;;;;2.47;1.80;;;22.20;45.70;;;;;;5016152;28;20029;-83
2021/05/20 12:02:32;;;;;;;3.15;2.08;;;22.20;45.90;;;;;;5014197;28;20030;-84
2021/05/20 12:05:06;;;;;;;3.00;1.88;;;22.40;45.90;;;;;;4997644;28;20037;-83
2021/05/20 12:07:41;;;;;;;2.72;1.80;;;22.60;46.50;;;;;;5012906;28;20038;-84
2021/05/20 12:10:18;;;;;;;2.80;2.00;;;22.90;45.20;;;;;;5009086;28;20025;-85
2021/05/20 12:12:58;;;;;;;2.05;1.80;;;23.30;45.10;;;;;;5011497;28;20037;-84
2021/05/20 12:18:55;;;;;;;3.38;2.53;;;23.80;43.90;;;;;;4937373;28;20046;-85
2021/05/20 12:21:47;;;;;;;3.30;2.25;;;23.60;44.20;;;;;;4954675;28;20419;-85
2021/05/20 12:24:29;;;;;;;3.78;2.50;;;23.50;44.60;;;;;;4959019;28;20035;-87
2021/05/20 12:26:55;;;;;;;;;;;23.20;43.50;;;;;;4945300;28;20393;-86
2021/05/20 12:29:21;;;;;;;4.70;2.25;;;22.80;44.40;;;;;;4962105;28;19923;-84
2021/05/20 12:32:22;;;;;;;3.08;2.15;;;22.70;45.00;;;;;;5020062;28;20026;-87
2021/05/20 12:35:12;;;;;;;2.10;1.90;;;22.60;45.80;;;;;;5020157;28;20514;-89
2021/05/20 12:38:12;;;;;;;4.90;2.30;;;22.80;46.80;;;;;;5012445;28;20649;-87
2021/05/20 12:40:39;;;;;;;3.78;2.78;;;23.40;44.80;;;;;;5018311;28;20430;-86
2021/05/20 12:43:20;;;;;;;2.35;2.08;;;24.10;45.20;;;;;;5014962;28;20192;-86
2021/05/20 12:45:46;;;;;;;2.53;1.77;;;24.50;45.90;;;;;;5017248;28;20029;-85
2021/05/20 12:48:30;;;;;;;1.95;1.77;;;24.80;44.10;;;;;;5013993;28;20398;-85
2021/05/20 12:51:21;;;;;;;3.40;2.00;;;24.90;44.10;;;;;;5015008;28;20044;-85
2021/05/20 12:53:57;;;;;;;2.88;2.40;;;24.80;43.10;;;;;;5021689;28;20512;-83
2021/05/20 12:56:26;;;;;;;1.90;1.80;;;24.70;42.70;;;;;;5020711;28;20060;-85
2021/05/20 12:59:12;;;;;;;3.45;2.20;;;24.70;44.30;;;;;;5017622;28;20033;-84
2021/05/20 13:01:45;;;;;;;3.42;2.50;;;24.90;44.30;;;;;;5008290;28;20021;-84
2021/05/20 13:04:25;;;;;;;2.65;2.45;;;24.70;44.00;;;;;;5019829;28;20033;-81
2021/05/20 13:07:07;;;;;;;4.18;2.40;;;24.50;44.10;;;;;;5018221;28;20120;-84
2021/05/20 13:09:37;;;;;;;3.57;2.17;;;24.30;44.00;;;;;;5019810;28;20041;-82
2021/05/20 13:12:13;;;;;;;4.05;2.28;;;24.00;44.30;;;;;;5021896;28;20283;-84
2021/05/20 13:14:46;;;;;;;2.75;2.17;;;23.80;44.70;;;;;;5019938;28;20033;-83
2021/05/20 13:17:45;;;;;;;7.45;2.75;;;23.60;45.20;;;;;;5021277;28;20040;-84
2021/05/20 13:23:09;;;;;;;2.40;2.20;;;23.70;44.50;;;;;;5017466;28;20029;-86
2021/05/20 13:25:35;;;;;;;2.95;2.00;;;23.70;45.10;;;;;;5021877;28;20018;-84
2021/05/20 13:28:01;;;;;;;2.55;1.98;;;23.80;45.10;;;;;;5020784;28;20045;-86
2021/05/20 13:33:02;;;;;;;4.45;2.30;;;23.90;43.30;;;;;;5013044;28;20025;-83
2021/05/20 13:35:28;;;;;;;2.53;2.25;;;23.90;43.10;;;;;;5013993;28;20044;-83
2021/05/20 13:37:54;;;;;;;1.83;1.73;;;23.70;43.40;;;;;;5011207;28;20037;-83
2021/05/20 13:40:29;;;;;;;2.22;1.83;;;23.60;43.70;;;;;;5022055;28;20453;-83
2021/05/20 13:43:02;;;;;;;2.08;1.88;;;23.60;44.20;;;;;;5021782;28;20047;-83
2021/05/20 13:48:30;;;;;;;2.33;1.85;;;23.40;43.80;;;;;;5017945;28;20033;-84
2021/05/20 13:57:11;;;;;;;2.70;2.00;;;23.20;45.00;;;;;;5008574;28;20038;-84